createdAt,value
2023-11-23T00:00:02.440Z,99602.56
2023-11-23T00:03:06.266Z,99597.81
2023-11-23T00:06:09.379Z,99604.69
2023-11-23T00:09:13.745Z,99591.34
2023-11-23T00:12:16.580Z,99590.50
2023-11-23T00:15:19.586Z,99592.19
2023-11-23T00:18:22.538Z,99593.19
2023-11-23T00:21:25.531Z,99592.19
2023-11-23T00:24:29.990Z,99587.84
2023-11-23T00:27:33.050Z,99573.41
2023-11-23T00:30:35.870Z,99570.88
2023-11-23T00:33:38.963Z,99565.69
2023-11-23T00:36:42.016Z,99549.97
2023-11-23T00:39:46.249Z,99563.75
2023-11-23T00:42:49.115Z,99560.91
2023-11-23T00:45:51.988Z,99567.88
2023-11-23T00:48:55.998Z,99566.06
2023-11-23T00:51:58.896Z,99578.00
2023-11-23T00:55:05.820Z,99581.59
2023-11-23T00:58:08.786Z,99577.81
2023-11-23T01:01:15.464Z,99578.78
2023-11-23T01:04:18.446Z,99569.75
2023-11-23T01:07:21.422Z,99560.38
2023-11-23T01:10:26.039Z,99574.91
2023-11-23T01:13:28.938Z,99579.94
2023-11-23T01:16:31.880Z,99576.03
2023-11-23T01:19:34.749Z,99573.47
2023-11-23T01:22:37.806Z,99569.28
2023-11-23T01:25:42.071Z,99571.91
2023-11-23T01:28:44.999Z,99568.94
2023-11-23T01:31:47.931Z,99568.19
2023-11-23T01:34:50.765Z,99566.91
2023-11-23T01:37:53.695Z,99568.13
2023-11-23T01:40:57.951Z,99565.47
2023-11-23T01:44:01.285Z,99563.19
2023-11-23T01:47:05.817Z,99563.63
2023-11-23T01:50:10.965Z,99564.72
2023-11-23T01:53:15.405Z,99561.34
2023-11-23T01:56:21.730Z,99548.06
2023-11-23T01:59:24.926Z,99551.22
2023-11-23T02:02:28.043Z,99546.06
2023-11-23T02:05:30.963Z,99536.13
2023-11-23T02:08:33.806Z,99543.06
2023-11-23T02:11:38.343Z,99549.22
2023-11-23T02:14:43.070Z,99553.25
2023-11-23T02:17:46.160Z,99557.88
2023-11-23T02:20:49.201Z,99569.47
2023-11-23T02:23:52.135Z,99563.00
2023-11-23T02:26:58.692Z,99565.91
2023-11-23T02:30:01.660Z,99559.88
2023-11-23T02:33:05.943Z,99566.31
2023-11-23T02:36:09.190Z,99545.41
2023-11-23T02:39:12.120Z,99549.75
2023-11-23T02:42:16.503Z,99558.09
2023-11-23T02:45:19.495Z,99551.25
2023-11-23T02:48:22.456Z,99551.53
2023-11-23T02:51:26.510Z,99556.50
2023-11-23T02:54:29.631Z,99549.75
2023-11-23T02:57:34.003Z,99552.22
2023-11-23T03:00:36.861Z,99545.75
2023-11-23T03:03:40.055Z,99546.13
2023-11-23T03:06:43.046Z,99556.38
2023-11-23T03:09:45.944Z,99574.44
2023-11-23T03:12:50.233Z,99569.81
2023-11-23T03:15:53.290Z,99563.69
2023-11-23T03:18:56.174Z,99569.19
2023-11-23T03:21:59.909Z,99561.41
2023-11-23T03:25:02.845Z,99556.16
2023-11-23T03:28:08.578Z,99550.75
2023-11-23T03:31:11.518Z,99544.19
2023-11-23T03:34:14.457Z,99527.03
2023-11-23T03:37:18.429Z,99533.38
2023-11-23T03:40:21.306Z,99525.25
2023-11-23T03:43:25.581Z,99528.38
2023-11-23T03:46:28.538Z,99529.06
2023-11-23T03:49:31.722Z,99529.06
2023-11-23T03:52:34.564Z,99536.22
2023-11-23T03:55:37.495Z,99532.72
2023-11-23T03:58:41.745Z,99526.41
2023-11-23T04:01:48.457Z,99522.53
2023-11-23T04:04:51.356Z,99509.50
2023-11-23T04:07:54.215Z,99518.63
2023-11-23T04:10:57.030Z,99523.94
2023-11-23T04:14:01.318Z,99512.44
2023-11-23T04:17:04.145Z,99505.03
2023-11-23T04:20:07.731Z,99499.72
2023-11-23T04:23:12.746Z,99516.38
2023-11-23T04:26:15.795Z,99499.31
2023-11-23T04:29:20.185Z,99502.09
2023-11-23T04:32:23.436Z,99493.00
2023-11-23T04:35:26.288Z,99499.72
2023-11-23T04:38:29.215Z,99502.38
2023-11-23T04:41:32.062Z,99509.28
2023-11-23T04:44:36.343Z,99518.09
2023-11-23T04:47:39.185Z,99523.56
2023-11-23T04:50:42.654Z,99523.13
2023-11-23T04:53:45.756Z,99525.94
2023-11-23T04:56:51.663Z,99521.44
2023-11-23T04:59:56.053Z,99511.19
2023-11-23T05:02:59.102Z,99514.16
2023-11-23T05:06:02.733Z,99516.53
2023-11-23T05:09:05.838Z,99527.44
2023-11-23T05:12:09.163Z,99520.84
2023-11-23T05:15:13.542Z,99517.59
2023-11-23T05:18:17.181Z,99501.34
2023-11-23T05:21:20.177Z,99513.50
2023-11-23T05:24:23.116Z,99499.06
2023-11-23T05:27:26.137Z,99505.59
2023-11-23T05:30:30.474Z,99508.09
2023-11-23T05:33:33.449Z,99503.03
2023-11-23T05:36:36.425Z,99517.59
2023-11-23T05:39:43.433Z,99528.47
2023-11-23T05:42:57.482Z,99544.56
2023-11-23T05:46:06.088Z,99553.91
2023-11-23T05:49:09.771Z,99565.75
2023-11-23T05:52:12.688Z,99557.22
2023-11-23T05:55:16.562Z,99555.66
2023-11-23T05:58:19.425Z,99547.81
2023-11-23T06:01:23.705Z,99530.59
2023-11-23T06:04:26.826Z,99526.34
2023-11-23T06:07:30.665Z,99525.78
2023-11-23T06:10:35.533Z,99510.94
2023-11-23T06:13:38.567Z,99501.69
2023-11-23T06:16:42.838Z,99499.03
2023-11-23T06:19:45.725Z,99500.25
2023-11-23T06:22:49.491Z,99505.94
2023-11-23T06:25:52.408Z,99509.44
2023-11-23T06:28:55.317Z,99510.41
2023-11-23T06:32:01.377Z,99512.25
2023-11-23T06:35:06.013Z,99520.59
2023-11-23T06:38:08.909Z,99515.69
2023-11-23T06:41:19.620Z,99512.44
2023-11-23T06:44:22.917Z,99506.13
2023-11-23T06:47:27.218Z,99512.00
2023-11-23T06:50:30.019Z,99515.72
2023-11-23T06:53:33.000Z,99519.97
2023-11-23T06:56:35.820Z,99515.16
2023-11-23T06:59:38.705Z,99507.28
2023-11-23T07:02:43.023Z,99513.59
2023-11-23T07:05:45.906Z,99510.09
2023-11-23T07:08:49.059Z,99511.41
2023-11-23T07:11:55.430Z,99505.25
2023-11-23T07:14:58.511Z,99499.09
2023-11-23T07:18:02.943Z,99490.56
2023-11-23T07:21:06.192Z,99485.25
2023-11-23T07:24:09.564Z,99474.63
2023-11-23T07:27:13.002Z,99472.22
2023-11-23T07:30:16.033Z,99459.91
2023-11-23T07:33:20.493Z,99455.97
2023-11-23T07:36:25.440Z,99455.84
2023-11-23T07:39:28.380Z,99449.09
2023-11-23T07:42:31.322Z,99460.44
2023-11-23T07:45:34.678Z,99454.41
2023-11-23T07:48:39.084Z,99447.06
2023-11-23T07:51:41.984Z,99442.13
2023-11-23T07:54:45.340Z,99431.72
2023-11-23T07:57:49.489Z,99416.78
2023-11-23T08:00:52.443Z,99404.50
2023-11-23T08:03:57.763Z,99398.59
2023-11-23T08:07:01.756Z,99396.53
2023-11-23T08:10:07.780Z,99397.78
2023-11-23T08:13:10.656Z,99384.28
2023-11-23T08:16:13.740Z,99382.47
2023-11-23T08:19:18.225Z,99381.44
2023-11-23T08:22:22.751Z,99368.66
2023-11-23T08:25:25.635Z,99367.84
2023-11-23T08:28:28.512Z,99365.38
2023-11-23T08:31:31.402Z,99357.19
2023-11-23T08:34:35.682Z,99362.78
2023-11-23T08:37:38.586Z,99358.47
2023-11-23T08:40:42.805Z,99343.69
2023-11-23T08:44:05.575Z,99347.50
2023-11-23T08:47:08.459Z,99328.22
2023-11-23T08:50:14.731Z,99312.97
2023-11-23T08:53:21.710Z,99308.78
2023-11-23T08:56:24.600Z,99303.59
2023-11-23T08:59:27.521Z,99300.25
2023-11-23T09:02:30.456Z,99296.47
2023-11-23T09:05:34.811Z,99293.66
2023-11-23T09:08:37.721Z,99288.91
2023-11-23T09:11:42.818Z,99291.44
2023-11-23T09:14:49.516Z,99293.00
2023-11-23T09:17:54.492Z,99285.56
2023-11-23T09:21:01.103Z,99267.94
2023-11-23T09:24:07.141Z,99266.69
2023-11-23T09:27:11.244Z,99262.78
2023-11-23T09:30:14.675Z,99255.78
2023-11-23T09:33:20.477Z,99247.25
2023-11-23T09:36:26.060Z,99248.75
2023-11-23T09:39:29.135Z,99238.97
2023-11-23T09:42:36.855Z,99245.84
2023-11-23T09:45:39.886Z,99237.56
2023-11-23T09:48:44.777Z,99227.50
2023-11-23T09:51:50.698Z,99217.81
2023-11-23T09:54:57.904Z,99197.34
2023-11-23T09:58:00.886Z,99179.44
2023-11-23T10:01:04.805Z,99173.97
2023-11-23T10:04:07.972Z,99170.75
2023-11-23T10:07:13.226Z,99154.47
2023-11-23T10:10:16.433Z,99147.47
2023-11-23T10:13:20.656Z,99143.16
2023-11-23T10:16:23.638Z,99140.34
2023-11-23T10:19:26.644Z,99127.03
2023-11-23T10:22:32.119Z,99119.88
2023-11-23T10:25:36.831Z,99108.13
2023-11-23T10:28:40.013Z,99108.25
2023-11-23T10:31:42.957Z,99104.34
2023-11-23T10:34:48.002Z,99092.69
2023-11-23T10:37:54.682Z,99083.03
2023-11-23T10:41:00.143Z,99072.00
2023-11-23T10:44:04.658Z,99054.25
2023-11-23T10:47:10.624Z,99037.22
2023-11-23T10:50:13.605Z,99021.84
2023-11-23T10:53:18.021Z,99020.44
2023-11-23T10:56:22.990Z,99006.47
2023-11-23T10:59:26.380Z,99004.25
2023-11-23T11:02:29.415Z,99001.84
2023-11-23T11:05:32.997Z,98992.78
2023-11-23T11:08:39.110Z,99004.16
2023-11-23T11:11:44.315Z,98986.94
2023-11-23T11:14:51.998Z,98985.84
2023-11-23T11:18:08.005Z,98971.06
2023-11-23T11:21:13.171Z,98960.16
2023-11-23T11:24:21.724Z,98957.66
2023-11-23T11:27:26.867Z,98957.09
2023-11-23T11:30:35.150Z,98949.00
2023-11-23T11:33:38.861Z,98949.84
2023-11-23T11:36:42.181Z,98947.50
2023-11-23T11:39:47.560Z,98942.88
2023-11-23T11:42:52.026Z,98942.03
2023-11-23T11:45:54.992Z,98933.03
2023-11-23T11:48:59.193Z,98933.44
2023-11-23T11:52:02.344Z,98930.47
2023-11-23T11:55:07.519Z,98922.31
2023-11-23T11:58:10.438Z,98916.81
2023-11-23T12:01:13.822Z,98909.38
2023-11-23T12:04:17.682Z,98903.47
2023-11-23T12:07:20.865Z,98901.06
2023-11-23T12:10:25.187Z,98893.50
2023-11-23T12:13:28.247Z,98879.19
2023-11-23T12:16:35.084Z,98876.78
2023-11-23T12:19:38.072Z,98861.81
2023-11-23T12:22:41.059Z,98842.88
2023-11-23T12:25:45.382Z,98825.78
2023-11-23T12:28:48.700Z,98827.13
2023-11-23T12:31:51.594Z,98806.84
2023-11-23T12:34:54.453Z,98803.97
2023-11-23T12:37:59.309Z,98798.75
2023-11-23T12:41:04.462Z,98780.22
2023-11-23T12:44:07.396Z,98783.97
2023-11-23T12:47:10.276Z,98771.59
2023-11-23T12:50:13.158Z,98768.09
2023-11-23T12:53:15.985Z,98761.06
2023-11-23T12:56:20.327Z,98765.94
2023-11-23T12:59:23.255Z,98756.63
2023-11-23T13:02:26.150Z,98761.19
2023-11-23T13:05:30.860Z,98745.97
2023-11-23T13:08:33.699Z,98739.38
2023-11-23T13:11:38.452Z,98726.72
2023-11-23T13:14:42.775Z,98721.06
2023-11-23T13:17:45.787Z,98713.97
2023-11-23T13:20:49.035Z,98709.66
2023-11-23T13:23:52.014Z,98704.94
2023-11-23T13:26:57.219Z,98687.09
2023-11-23T13:30:01.075Z,98680.78
2023-11-23T13:33:13.623Z,98676.31
2023-11-23T13:36:16.697Z,98667.97
2023-11-23T13:39:20.851Z,98659.47
2023-11-23T13:42:25.380Z,98643.53
2023-11-23T13:45:28.480Z,98634.16
2023-11-23T13:48:32.626Z,98614.84
2023-11-23T13:51:36.095Z,98615.88
2023-11-23T13:54:39.448Z,98607.59
2023-11-23T13:57:43.840Z,98593.03
2023-11-23T14:00:46.724Z,98582.16
2023-11-23T14:03:50.361Z,98571.19
2023-11-23T14:06:53.548Z,98571.41
2023-11-23T14:09:56.356Z,98563.88
2023-11-23T14:13:01.344Z,98559.88
2023-11-23T14:16:05.418Z,98547.19
2023-11-23T14:19:15.996Z,98544.13
2023-11-23T14:22:20.026Z,98538.41
2023-11-23T14:25:23.786Z,98536.13
2023-11-23T14:28:28.139Z,98494.13
2023-11-23T14:31:34.150Z,98480.81
2023-11-23T14:34:37.255Z,98472.66
2023-11-23T14:37:41.997Z,98470.72
2023-11-23T14:40:47.757Z,98476.03
2023-11-23T14:43:52.303Z,98475.19
2023-11-23T14:46:56.664Z,98446.25
2023-11-23T14:50:01.250Z,98452.06
2023-11-23T14:53:05.178Z,98434.28
2023-11-23T14:56:09.343Z,98413.03
2023-11-23T14:59:13.652Z,98412.16
2023-11-23T15:02:16.631Z,98396.88
2023-11-23T15:05:20.005Z,98380.94
2023-11-23T15:08:22.992Z,98383.59
2023-11-23T15:11:25.830Z,98379.75
2023-11-23T15:14:30.075Z,98373.44
2023-11-23T15:17:33.448Z,98360.97
2023-11-23T15:20:36.351Z,98355.47
2023-11-23T15:23:39.520Z,98358.13
2023-11-23T15:26:42.442Z,98336.53
2023-11-23T15:29:46.672Z,98318.38
2023-11-23T15:32:53.805Z,98312.56
2023-11-23T15:35:57.383Z,98321.38
2023-11-23T15:39:00.232Z,98300.09
2023-11-23T15:42:04.529Z,98282.31
2023-11-23T15:45:09.735Z,98276.00
2023-11-23T15:48:13.000Z,98266.84
2023-11-23T15:51:16.540Z,98276.13
2023-11-23T15:54:20.423Z,98244.22
2023-11-23T15:57:23.466Z,98234.94
2023-11-23T16:00:27.850Z,98224.97
2023-11-23T16:03:30.850Z,98216.47
2023-11-23T16:06:38.282Z,98202.00
2023-11-23T16:09:41.530Z,98183.03
2023-11-23T16:12:45.584Z,98177.03
2023-11-23T16:15:50.342Z,98165.94
2023-11-23T16:18:53.737Z,98157.31
2023-11-23T16:21:57.104Z,98150.66
2023-11-23T16:25:03.173Z,98141.19
2023-11-23T16:28:06.125Z,98121.06
2023-11-23T16:31:10.499Z,98118.09
2023-11-23T16:34:14.630Z,98101.00
2023-11-23T16:37:17.620Z,98108.28
2023-11-23T16:40:21.012Z,98096.66
2023-11-23T16:43:23.931Z,98078.41
2023-11-23T16:46:28.204Z,98065.28
2023-11-23T16:49:31.190Z,98059.47
2023-11-23T16:52:34.348Z,98051.19
2023-11-23T16:55:38.633Z,98042.88
2023-11-23T16:58:42.056Z,98057.81
2023-11-23T17:01:47.529Z,98044.53
2023-11-23T17:04:53.043Z,98036.22
2023-11-23T17:07:58.258Z,98020.41
2023-11-23T17:11:01.192Z,98003.19
2023-11-23T17:14:04.658Z,97997.53
2023-11-23T17:17:09.186Z,97994.88
2023-11-23T17:20:14.221Z,97976.16
2023-11-23T17:23:17.153Z,97970.00
2023-11-23T17:26:20.446Z,97956.91
2023-11-23T17:29:23.686Z,97963.81
2023-11-23T17:32:27.962Z,97954.56
2023-11-23T17:35:30.966Z,97943.22
2023-11-23T17:38:35.092Z,97935.91
2023-11-23T17:41:37.976Z,97929.75
2023-11-23T17:44:41.096Z,97911.47
2023-11-23T17:47:46.418Z,97904.97
2023-11-23T17:50:49.518Z,97889.00
2023-11-23T17:53:52.518Z,97871.06
2023-11-23T17:56:56.703Z,97869.88
2023-11-23T17:59:59.669Z,97856.25
2023-11-23T18:03:03.998Z,97856.09
2023-11-23T18:06:07.914Z,97845.09
2023-11-23T18:09:10.926Z,97843.75
2023-11-23T18:12:13.987Z,97843.75
2023-11-23T18:15:16.878Z,97834.25
2023-11-23T18:18:24.189Z,97831.41
2023-11-23T18:21:28.299Z,97812.09
2023-11-23T18:24:31.428Z,97824.69
2023-11-23T18:27:34.393Z,97803.63
2023-11-23T18:30:37.463Z,97800.13
2023-11-23T18:33:42.035Z,97786.66
2023-11-23T18:36:46.528Z,97775.69
2023-11-23T18:39:50.220Z,97762.19
2023-11-23T18:42:54.791Z,97738.25
2023-11-23T18:45:58.010Z,97731.94
2023-11-23T18:49:03.958Z,97707.38
2023-11-23T18:52:07.239Z,97696.19
2023-11-23T18:55:11.389Z,97681.88
2023-11-23T18:58:14.413Z,97669.72
2023-11-23T19:01:18.762Z,97669.03
2023-11-23T19:04:23.831Z,97647.78
2023-11-23T19:07:26.988Z,97637.78
2023-11-23T19:10:29.835Z,97625.66
2023-11-23T19:13:32.722Z,97644.56
2023-11-23T19:16:35.670Z,97630.44
2023-11-23T19:19:40.638Z,97628.13
2023-11-23T19:22:43.913Z,97627.59
2023-11-23T19:25:48.067Z,97605.13
2023-11-23T19:28:51.652Z,97608.03
2023-11-23T19:31:56.027Z,97604.47
2023-11-23T19:35:00.743Z,97569.94
2023-11-23T19:38:05.392Z,97568.31
2023-11-23T19:41:10.810Z,97564.88
2023-11-23T19:44:14.309Z,97570.75
2023-11-23T19:47:18.067Z,97553.16
2023-11-23T19:50:23.125Z,97561.19
2023-11-23T19:53:27.963Z,97545.59
2023-11-23T19:56:30.885Z,97534.88
2023-11-23T19:59:33.785Z,97523.53
2023-11-23T20:02:36.822Z,97506.47
2023-11-23T20:05:42.326Z,97506.28
2023-11-23T20:08:45.429Z,97501.06
2023-11-23T20:11:48.285Z,97489.59
2023-11-23T20:14:51.194Z,97471.09
2023-11-23T20:17:54.149Z,97468.78
2023-11-23T20:20:58.500Z,97465.84
2023-11-23T20:24:01.380Z,97461.56
2023-11-23T20:27:04.311Z,97455.88
2023-11-23T20:30:07.862Z,97437.25
2023-11-23T20:33:10.829Z,97432.78
2023-11-23T20:36:15.206Z,97423.16
2023-11-23T20:39:18.169Z,97435.00
2023-11-23T20:42:21.346Z,97428.38
2023-11-23T20:45:26.025Z,97428.69
2023-11-23T20:48:28.879Z,97418.31
2023-11-23T20:51:33.215Z,97412.28
2023-11-23T20:54:36.207Z,97406.88
2023-11-23T20:57:39.519Z,97393.16
2023-11-23T21:00:42.717Z,97375.47
2023-11-23T21:03:46.179Z,97387.72
2023-11-23T21:06:58.955Z,97377.66
2023-11-23T21:10:05.870Z,97369.50
2023-11-23T21:13:08.861Z,97367.09
2023-11-23T21:16:13.371Z,97353.28
2023-11-23T21:19:16.267Z,97346.31
2023-11-23T21:22:20.707Z,97331.19
2023-11-23T21:25:23.548Z,97327.34
2023-11-23T21:28:26.419Z,97316.13
2023-11-23T21:31:29.657Z,97304.31
2023-11-23T21:34:32.609Z,97291.03
2023-11-23T21:37:37.133Z,97267.72
2023-11-23T21:40:40.042Z,97264.66
2023-11-23T21:43:43.408Z,97262.06
2023-11-23T21:46:46.446Z,97261.50
2023-11-23T21:49:49.419Z,97261.72
2023-11-23T21:52:55.230Z,97240.63
2023-11-23T21:55:58.356Z,97243.72
2023-11-23T21:59:01.238Z,97229.16
2023-11-23T22:02:05.322Z,97232.66
2023-11-23T22:05:08.695Z,97219.38
2023-11-23T22:08:13.020Z,97211.00
2023-11-23T22:11:15.903Z,97197.69
2023-11-23T22:14:19.164Z,97203.78
2023-11-23T22:17:22.233Z,97188.00
2023-11-23T22:20:25.369Z,97179.56
2023-11-23T22:23:29.984Z,97171.69
2023-11-23T22:26:33.165Z,97172.03
2023-11-23T22:29:36.243Z,97159.94
2023-11-23T22:32:41.043Z,97151.16
2023-11-23T22:35:44.867Z,97156.88
2023-11-23T22:38:50.077Z,97156.69
2023-11-23T22:41:53.174Z,97144.63
2023-11-23T22:44:56.315Z,97143.38
2023-11-23T22:47:59.222Z,97131.94
2023-11-23T22:51:02.202Z,97131.56
2023-11-23T22:54:07.361Z,97113.94
2023-11-23T22:57:10.305Z,97116.22
2023-11-23T23:00:15.656Z,97115.19
2023-11-23T23:03:19.333Z,97099.69
2023-11-23T23:06:22.418Z,97086.75
2023-11-23T23:09:28.354Z,97087.38
2023-11-23T23:12:31.871Z,97078.41
2023-11-23T23:15:34.867Z,97073.25
2023-11-23T23:18:37.940Z,97069.41
2023-11-23T23:21:40.900Z,97058.59
2023-11-23T23:24:45.230Z,97084.75
2023-11-23T23:27:48.136Z,97082.28
2023-11-23T23:30:51.002Z,97081.91
2023-11-23T23:33:53.935Z,97071.28
2023-11-23T23:36:56.889Z,97068.22
2023-11-23T23:40:01.139Z,97050.41
2023-11-23T23:43:04.083Z,97038.53
2023-11-23T23:46:07.048Z,97022.16
2023-11-23T23:49:09.958Z,97013.75
2023-11-23T23:52:12.854Z,96998.81
2023-11-23T23:55:17.247Z,96999.47
2023-11-23T23:58:20.144Z,96988.81
